createdAt,value
2018-08-17T00:00:31.155Z,47.28
2018-08-17T00:05:24.251Z,47.35
2018-08-17T00:10:17.396Z,46.20
2018-08-17T00:15:10.455Z,46.91
2018-08-17T00:20:03.611Z,47.45
2018-08-17T00:24:56.643Z,46.45
2018-08-17T00:29:49.789Z,46.22
2018-08-17T00:34:42.777Z,46.90
2018-08-17T00:39:35.734Z,45.59
2018-08-17T00:44:28.841Z,46.67
2018-08-17T00:49:21.839Z,45.43
2018-08-17T00:54:14.899Z,47.45
2018-08-17T00:59:07.958Z,46.44
2018-08-17T01:04:01.042Z,44.14
2018-08-17T01:08:54.071Z,41.60
2018-08-17T01:13:47.371Z,38.93
2018-08-17T01:18:40.409Z,35.38
2018-08-17T01:23:33.584Z,34.05
2018-08-17T01:28:26.709Z,33.93
2018-08-17T01:33:19.822Z,34.58
2018-08-17T01:38:12.839Z,35.17
2018-08-17T01:43:06.110Z,34.55
2018-08-17T01:47:59.093Z,34.11
2018-08-17T01:52:52.799Z,33.67
2018-08-17T01:57:45.803Z,32.73
2018-08-17T02:02:40.575Z,32.74
2018-08-17T02:07:33.864Z,33.96
2018-08-17T02:12:27.221Z,33.58
2018-08-17T02:17:20.335Z,32.68
2018-08-17T02:22:13.403Z,33.48
2018-08-17T02:27:06.561Z,32.54
2018-08-17T02:31:59.593Z,31.05
2018-08-17T02:36:52.624Z,31.48
2018-08-17T02:41:45.707Z,31.42
2018-08-17T02:46:38.791Z,32.03
2018-08-17T02:51:31.716Z,31.79
2018-08-17T02:56:24.654Z,31.35
2018-08-17T03:01:17.678Z,30.60
2018-08-17T03:06:10.729Z,31.75
2018-08-17T03:11:03.939Z,32.05
2018-08-17T03:15:56.963Z,32.46
2018-08-17T03:20:50.106Z,31.64
2018-08-17T03:25:43.398Z,32.90
2018-08-17T03:30:36.524Z,31.43
2018-08-17T03:35:29.650Z,32.92
2018-08-17T03:40:22.630Z,31.48
2018-08-17T03:45:15.641Z,32.57
2018-08-17T03:50:08.751Z,31.63
2018-08-17T03:55:01.976Z,31.92
2018-08-17T03:59:55.068Z,33.03
2018-08-17T04:04:48.097Z,33.55
2018-08-17T04:09:41.217Z,33.30
2018-08-17T04:14:34.229Z,34.04
2018-08-17T04:19:27.290Z,33.53
2018-08-17T04:24:20.414Z,33.01
2018-08-17T04:29:13.635Z,33.96
2018-08-17T04:34:06.745Z,34.85
2018-08-17T04:38:59.766Z,34.27
2018-08-17T04:43:53.094Z,35.13
2018-08-17T04:48:46.045Z,34.41
2018-08-17T04:53:39.045Z,35.06
2018-08-17T04:58:32.131Z,35.54
2018-08-17T05:03:25.102Z,34.91
2018-08-17T05:08:18.311Z,35.62
2018-08-17T05:13:11.277Z,36.83
2018-08-17T05:18:04.326Z,36.86
2018-08-17T05:22:57.463Z,38.13
2018-08-17T05:27:50.612Z,38.03
2018-08-17T05:32:43.582Z,38.53
2018-08-17T05:37:36.523Z,39.00
2018-08-17T05:42:29.639Z,39.03
2018-08-17T05:47:22.825Z,39.69
2018-08-17T05:52:15.838Z,40.22
2018-08-17T05:57:08.863Z,39.62
2018-08-17T06:02:02.251Z,40.75
2018-08-17T06:06:55.434Z,40.08
2018-08-17T06:11:48.616Z,41.30
2018-08-17T06:16:42.662Z,41.46
2018-08-17T06:21:35.694Z,41.95
2018-08-17T06:26:28.590Z,40.78
2018-08-17T06:31:22.073Z,40.51
2018-08-17T06:36:15.149Z,40.54
2018-08-17T06:41:08.902Z,40.64
2018-08-17T06:46:01.955Z,40.72
2018-08-17T06:50:55.023Z,40.66
2018-08-17T06:55:47.982Z,40.61
2018-08-17T07:00:41.754Z,39.09
2018-08-17T07:05:34.825Z,37.28
2018-08-17T07:10:27.973Z,39.10
2018-08-17T07:15:21.160Z,39.26
2018-08-17T07:20:14.187Z,38.60
2018-08-17T07:25:07.476Z,38.58
2018-08-17T07:30:00.883Z,38.80
2018-08-17T07:34:53.940Z,38.36
2018-08-17T07:39:48.302Z,39.03
2018-08-17T07:44:41.915Z,38.72
2018-08-17T07:49:35.258Z,37.76
2018-08-17T07:54:28.361Z,37.70
2018-08-17T07:59:21.455Z,35.92
2018-08-17T08:04:14.429Z,35.71
2018-08-17T08:09:09.839Z,36.10
2018-08-17T08:14:06.694Z,36.67
2018-08-17T08:19:03.231Z,36.02
2018-08-17T08:23:56.793Z,34.30
2018-08-17T08:28:49.791Z,33.88
2018-08-17T08:33:46.345Z,33.79
2018-08-17T08:38:39.365Z,32.38
2018-08-17T08:43:32.531Z,31.74
2018-08-17T08:48:25.619Z,31.42
2018-08-17T08:53:19.566Z,31.62
2018-08-17T08:58:12.990Z,32.51
2018-08-17T09:03:07.554Z,31.61
2018-08-17T09:08:02.000Z,30.54
2018-08-17T09:12:55.006Z,30.74
2018-08-17T09:17:48.106Z,31.81
2018-08-17T09:22:41.660Z,31.10
2018-08-17T09:27:35.562Z,31.27
2018-08-17T09:32:30.545Z,31.55
2018-08-17T09:37:25.732Z,31.45
2018-08-17T09:42:18.774Z,31.77
2018-08-17T09:47:11.732Z,32.03
2018-08-17T09:52:05.096Z,32.08
2018-08-17T09:56:58.646Z,29.97
2018-08-17T10:01:57.323Z,31.55
2018-08-17T10:06:56.563Z,31.21
2018-08-17T10:11:50.947Z,32.01
2018-08-17T10:16:44.127Z,31.42
2018-08-17T10:21:56.175Z,30.53
2018-08-17T10:26:49.729Z,31.76
2018-08-17T10:31:43.311Z,32.91
2018-08-17T10:36:36.456Z,32.58
2018-08-17T10:41:29.701Z,30.90
2018-08-17T10:46:22.756Z,31.67
2018-08-17T10:51:15.701Z,31.42
2018-08-17T10:56:08.746Z,32.41
2018-08-17T11:01:01.896Z,33.82
2018-08-17T11:05:54.855Z,31.74
2018-08-17T11:10:47.953Z,32.56
2018-08-17T11:15:40.900Z,34.27
2018-08-17T11:20:33.960Z,35.00
2018-08-17T11:25:27.040Z,38.08
2018-08-17T11:30:20.260Z,39.00
2018-08-17T11:35:13.278Z,38.09
2018-08-17T11:40:07.854Z,37.39
2018-08-17T11:45:01.355Z,38.63
2018-08-17T11:49:54.503Z,39.44
2018-08-17T11:54:47.488Z,38.26
2018-08-17T12:00:00.445Z,38.72
2018-08-17T12:04:53.446Z,39.48
2018-08-17T12:09:51.889Z,40.98
2018-08-17T12:14:47.225Z,40.06
2018-08-17T12:19:40.246Z,40.01
2018-08-17T12:24:33.256Z,40.23
2018-08-17T12:29:26.556Z,40.58
2018-08-17T12:34:19.556Z,39.99
2018-08-17T12:39:12.586Z,41.04
2018-08-17T12:44:06.039Z,40.80
2018-08-17T12:48:59.067Z,39.91
2018-08-17T12:53:52.128Z,39.95
2018-08-17T12:58:45.154Z,39.66
2018-08-17T13:03:38.189Z,40.67
2018-08-17T13:08:31.094Z,39.95
2018-08-17T13:13:24.045Z,38.63
2018-08-17T13:18:22.824Z,38.65
2018-08-17T13:23:15.932Z,39.71
2018-08-17T13:28:09.013Z,39.14
2018-08-17T13:33:02.025Z,37.59
2018-08-17T13:37:55.173Z,36.95
2018-08-17T13:42:48.294Z,38.56
2018-08-17T13:47:41.331Z,41.05
2018-08-17T13:52:34.410Z,40.10
2018-08-17T13:57:27.682Z,40.59
2018-08-17T14:02:20.721Z,43.32
2018-08-17T14:07:13.804Z,43.98
2018-08-17T14:12:07.896Z,42.79
2018-08-17T14:17:01.139Z,45.13
2018-08-17T14:21:54.062Z,46.82
2018-08-17T14:26:47.255Z,47.21
2018-08-17T14:31:40.348Z,47.68
2018-08-17T14:36:33.358Z,47.72
2018-08-17T14:41:26.354Z,47.17
2018-08-17T14:46:23.706Z,49.43
2018-08-17T14:51:16.732Z,48.80
2018-08-17T14:56:09.628Z,47.28
2018-08-17T15:01:02.735Z,45.56
2018-08-17T15:05:55.740Z,45.79
2018-08-17T15:10:48.860Z,49.66
2018-08-17T15:15:41.926Z,52.07
2018-08-17T15:20:36.584Z,52.97
2018-08-17T15:25:29.649Z,52.18
2018-08-17T15:30:22.660Z,50.96
2018-08-17T15:35:15.660Z,50.20
2018-08-17T15:40:10.747Z,46.90
2018-08-17T15:45:04.571Z,47.27
2018-08-17T15:50:28.670Z,47.34
2018-08-17T15:55:21.900Z,45.64
2018-08-17T16:00:19.934Z,46.28
2018-08-17T16:05:12.973Z,47.60
2018-08-17T16:10:07.547Z,48.21
2018-08-17T16:15:00.738Z,50.05
2018-08-17T16:19:54.138Z,50.75
2018-08-17T16:24:47.218Z,52.68
2018-08-17T16:29:40.221Z,54.93
2018-08-17T16:34:33.269Z,54.57
2018-08-17T16:39:26.395Z,54.73
2018-08-17T16:44:19.468Z,52.04
2018-08-17T16:49:12.513Z,52.08
2018-08-17T16:54:05.814Z,51.97
2018-08-17T16:58:58.911Z,51.27
2018-08-17T17:03:52.139Z,52.48
2018-08-17T17:08:45.029Z,52.34
2018-08-17T17:13:39.777Z,52.84
2018-08-17T17:18:32.823Z,54.52
2018-08-17T17:23:25.893Z,54.89
2018-08-17T17:28:18.915Z,50.71
2018-08-17T17:33:12.140Z,48.13
2018-08-17T17:38:07.731Z,50.04
2018-08-17T17:43:01.006Z,52.55
2018-08-17T17:47:54.072Z,53.74
2018-08-17T17:52:47.160Z,53.81
2018-08-17T17:57:40.179Z,53.76
2018-08-17T18:02:33.761Z,55.48
2018-08-17T18:07:50.363Z,55.61
2018-08-17T18:12:43.423Z,54.53
2018-08-17T18:17:36.462Z,54.75
2018-08-17T18:22:32.049Z,55.32
2018-08-17T18:27:26.792Z,54.96
2018-08-17T18:32:19.863Z,56.05
2018-08-17T18:37:12.954Z,52.19
2018-08-17T18:42:06.300Z,55.63
2018-08-17T18:46:59.494Z,58.55
2018-08-17T18:51:53.794Z,57.72
2018-08-17T18:57:02.816Z,52.58
2018-08-17T19:01:56.023Z,54.57
2018-08-17T19:08:07.661Z,55.99
2018-08-17T19:13:00.904Z,56.75
2018-08-17T19:17:54.077Z,57.29
2018-08-17T19:22:47.176Z,57.34
2018-08-17T19:27:40.871Z,56.80
2018-08-17T19:32:33.989Z,56.07
2018-08-17T19:37:26.933Z,54.68
2018-08-17T19:42:19.873Z,53.87
2018-08-17T19:47:12.860Z,55.84
2018-08-17T19:52:06.233Z,56.99
2018-08-17T19:56:59.319Z,55.45
2018-08-17T20:01:52.418Z,56.29
2018-08-17T20:06:45.752Z,56.49
2018-08-17T20:11:38.744Z,56.76
2018-08-17T20:16:31.780Z,56.06
2018-08-17T20:21:25.637Z,55.06
2018-08-17T20:26:19.050Z,55.52
2018-08-17T20:31:11.784Z,55.42
2018-08-17T20:36:04.869Z,55.15
2018-08-17T20:40:59.688Z,54.92
2018-08-17T20:45:52.655Z,54.34
2018-08-17T20:50:45.658Z,54.29
2018-08-17T20:55:38.616Z,55.03
2018-08-17T21:00:31.733Z,54.50
2018-08-17T21:05:24.840Z,55.39
2018-08-17T21:10:17.955Z,54.78
2018-08-17T21:15:10.933Z,53.86
2018-08-17T21:20:04.752Z,54.48
2018-08-17T21:24:57.813Z,55.53
2018-08-17T21:29:50.922Z,55.11
2018-08-17T21:34:43.841Z,54.13
2018-08-17T21:39:37.946Z,50.17
2018-08-17T21:44:30.935Z,48.34
2018-08-17T21:49:25.276Z,47.60
2018-08-17T21:54:18.772Z,48.20
2018-08-17T21:59:11.829Z,48.70
2018-08-17T22:04:04.864Z,47.53
2018-08-17T22:08:57.912Z,47.79
2018-08-17T22:13:51.023Z,47.77
2018-08-17T22:18:44.063Z,47.77
2018-08-17T22:23:37.039Z,47.73
2018-08-17T22:28:30.097Z,48.44
2018-08-17T22:33:23.202Z,50.01
2018-08-17T22:38:16.235Z,50.28
2018-08-17T22:43:09.158Z,50.14
2018-08-17T22:48:02.123Z,51.96
2018-08-17T22:52:55.210Z,54.50
2018-08-17T22:57:48.155Z,54.60
2018-08-17T23:02:42.265Z,54.69
2018-08-17T23:07:35.298Z,55.20
2018-08-17T23:12:28.367Z,54.50
2018-08-17T23:17:21.502Z,55.21
2018-08-17T23:22:14.767Z,54.35
2018-08-17T23:27:07.702Z,55.26
2018-08-17T23:32:00.894Z,54.29
2018-08-17T23:36:53.907Z,55.29
2018-08-17T23:41:47.924Z,54.89
2018-08-17T23:46:40.954Z,53.37
2018-08-17T23:51:33.952Z,53.28
2018-08-17T23:56:27.026Z,53.44
